Scipio Center, NY (13147)

7:13 AM EDT on July 29, 2016 (GMT -0400)
Green Hill Farm | | Change Station
Active Advisory: Special Statement

Elev 968 ft 42.82 °N, 76.59 °W | Updated 3 minutes ago

Clear
Clear
67.6 °F
Feels Like 67.6 °F
N
0.0
Wind Variable Wind from ENE
Gusts 0.0 mph

Today
High -- | Low -- °F
--% Chance of Precip.
Yesterday
High -- | Low -- °F
Precip. -- in
Pressure 29.91 in
Visibility 10.0 miles
Clouds Clear
Dew Point 67 °F
Humidity 97%
Rainfall 0.00 in
Snow Depth Not available.
5:55 AM 8:29 PM
Waning Crescent, 23% visible
METAR KITH 291056Z 00000KT 10SM CLR 17/16 A2993 RMK AO2 SLP127 T01670156
Pressure 29.91 in
Visibility 10.0 miles
Clouds Clear
Dew Point 67 °F
Humidity 97%
Rainfall 0.00 in
Snow Depth Not available.
5:55 AM 8:29 PM
Waning Crescent, 23% visible
METAR KITH 291056Z 00000KT 10SM CLR 17/16 A2993 RMK AO2 SLP127 T01670156

10-Day Weather Forecast

Almanac

Astronomy

Jul. 29, 2016 Rise Set
Actual Time
Civil Twilight
Nautical Twilight
Astronomical Twilight
Moon
Length of Visible Light
Length of Day
Tomorrow will be .
, % of the Moon is Illuminated

Today's Extremes

State Highs State Lows

Community

WunderPhotos

Upload Photos

1,928,312 photos uploaded!

WunderBlog® & News

Nearby

Air Quality

  Air Quality AQ Index Pollutant
Not available.

Snow Depth

Station Depth Elevation

Earthquake Activity

City Distance Mag. Time & Date
Minimum magnitude displayed is 2.5.

Coastal Water Temperatures

Place Temperature

Stations

Nearby Weather Stations

Station Location Temp. Windchill Dew Point Humidity Wind Precip. Elev Updated Type
                   

Watches & Warnings

Special Statement
Issued: 6:41 AM EDT Jul. 29, 2016 – National Weather Service

Patchy dense fog has developed this morning and will impact
portions of the Syracuse Metro area and the I 90 corridor through
9 am. Visibilities have dropped to less than a quarter mile in
some locations. Please use caution when driving this morning.



641 am EDT Fri Jul 29 2016

Patchy dense fog has developed this morning and will impact
portions of the Syracuse Metro area and the I 90 corridor through
9 am. Visibilities have dropped to less than a quarter mile in
some locations. Please use caution when driving this morning.



641 am EDT Fri Jul 29 2016

Patchy dense fog has developed this morning and will impact
portions of the Syracuse Metro area and the I 90 corridor through
9 am. Visibilities have dropped to less than a quarter mile in
some locations. Please use caution when driving this morning.